Terminal Aerodrome Forecast
Issued by NWS

Home | Current Version | Previous Version | Text Only | Print | Product List | Glossary On
Versions: 1 2 3 4 5 6 7 8 9 10 11 12 13 14
000
FTUS46 KPDT 182300
TAFYKM
TAF
KYKM 182320Z 1900/1924 29012KT P6SM SCT160 OVC200
     FM190400 27007KT P6SM SCT130 BKN150
     FM191000 35005KT P6SM BKN130
     FM191600 18008KT P6SM BKN100
     FM191900 25018G27KT P6SM SCT080 BKN100=

USA.gov is the U.S. government's official web portal to all federal, state and local government web resources and services.